| Date Time MST |
Temp °F |
RH % |
DewPt °F |
Wind mph |
Dir ° |
Gust mph |
Dir ° |
Press in Hg |
Solar W/m^2 |
Prec in |
|---|---|---|---|---|---|---|---|---|---|---|
| 2026-05-05 22:15 | 31.9 | 98.3 | 31.4 | 10.5 | 359 | 14.2 | 6 | 24.884 | 1.3 | 0.00 |
| 2026-05-05 22:10 | 31.9 | 98.3 | 31.5 | 9.2 | 332 | 11.1 | 341 | 24.881 | 1.3 | 0.00 |
| 2026-05-05 22:05 | 31.9 | 98.3 | 31.5 | 9.2 | 333 | 11.9 | 330 | 24.879 | 1.2 | 0.00 |
| 2026-05-05 22:00 | 31.9 | 98.2 | 31.5 | 8.4 | 331 | 10.5 | 326 | 24.879 | 1.1 | 0.00 |
| 2026-05-05 21:55 | 31.9 | 98.2 | 31.5 | 7.8 | 334 | 9.8 | 338 | 24.878 | 1.1 | 0.00 |
| 2026-05-05 21:50 | 31.9 | 98.3 | 31.5 | 5.0 | 332 | 7.1 | 332 | 24.876 | 1.1 | 0.00 |
| 2026-05-05 21:45 | 32.0 | 98.3 | 31.6 | 3.2 | 1 | 4.4 | 1 | 24.876 | 1.1 | 0.00 |
| 2026-05-05 21:40 | 32.1 | 98.2 | 31.6 | 2.5 | 334 | 3.3 | 334 | 24.875 | 1.1 | 0.00 |
| 2026-05-05 21:35 | 32.1 | 98.2 | 31.7 | 1.8 | 305 | 2.4 | 304 | 24.872 | 1.1 | 0.00 |
| 2026-05-05 21:30 | 32.1 | 98.3 | 31.6 | 2.0 | 305 | 2.2 | 288 | 24.873 | 1.1 | 0.00 |
| 2026-05-05 21:25 | 32.1 | 98.2 | 31.6 | 2.6 | 280 | 2.9 | 279 | 24.872 | 1.1 | 0.00 |
| 2026-05-05 21:20 | 32.1 | 98.3 | 31.7 | 2.6 | 279 | 2.9 | 278 | 24.872 | 1.0 | 0.00 |
| 2026-05-05 21:15 | 32.1 | 98.3 | 31.7 | 2.2 | 266 | 2.8 | 265 | 24.874 | 1.0 | 0.00 |
| 2026-05-05 21:10 | 32.1 | 98.2 | 31.6 | 2.0 | 264 | 2.8 | 263 | 24.873 | 1.1 | 0.00 |
| 2026-05-05 21:05 | 32.0 | 98.2 | 31.6 | 1.1 | 237 | 1.2 | 235 | 24.869 | 1.1 | 0.00 |
| 2026-05-05 21:00 | 32.0 | 98.3 | 31.6 | 1.1 | 235 | 1.4 | 235 | 24.867 | 1.3 | 0.00 |
| 2026-05-05 20:55 | 32.1 | 98.2 | 31.6 | 0.9 | 235 | 1.2 | 235 | 24.865 | 1.3 | 0.00 |
| 2026-05-05 20:50 | 32.0 | 98.3 | 31.6 | 0.5 | 235 | 1.2 | 9 | 24.864 | 1.4 | 0.00 |
| 2026-05-05 20:45 | 32.0 | 98.2 | 31.5 | 0.0 | 9 | 0.0 | 9 | 24.863 | 1.4 | 0.00 |
| 2026-05-05 20:40 | 32.0 | 98.2 | 31.6 | 0.7 | 9 | 1.4 | 272 | 24.861 | 1.4 | 0.00 |
| 2026-05-05 20:35 | 32.2 | 98.2 | 31.8 | 0.0 | 272 | 0.0 | 272 | 24.861 | 1.4 | 0.00 |
| 2026-05-05 20:30 | 32.3 | 98.2 | 31.8 | 0.0 | 272 | 0.0 | 272 | 24.861 | 1.4 | 0.00 |
| 2026-05-05 20:25 | 32.3 | 98.1 | 31.8 | 0.0 | 272 | 0.0 | 272 | 24.858 | 1.4 | 0.00 |
| 2026-05-05 20:20 | 32.2 | 98.2 | 31.8 | 0.0 | 272 | 0.0 | 272 | 24.857 | 1.4 | 0.00 |
| 2026-05-05 20:15 | 32.2 | 98.2 | 31.8 | 0.0 | 272 | 0.0 | 272 | 24.855 | 1.4 | 0.00 |
| 2026-05-05 20:10 | 32.2 | 98.2 | 31.7 | 0.0 | 272 | 0.0 | 272 | 24.852 | 1.4 | 0.00 |
| 2026-05-05 20:05 | 32.2 | 98.2 | 31.7 | 0.0 | 272 | 0.0 | 272 | 24.850 | 1.4 | 0.00 |
| 2026-05-05 20:00 | 32.2 | 98.1 | 31.7 | 0.8 | 272 | 1.3 | 272 | 24.850 | 1.4 | 0.00 |
| 2026-05-05 19:55 | 32.1 | 98.2 | 31.7 | 1.6 | 271 | 2.1 | 271 | 24.849 | 1.4 | 0.00 |
| 2026-05-05 19:50 | 32.1 | 98.2 | 31.6 | 2.6 | 270 | 3.1 | 289 | 24.846 | 1.4 | 0.00 |
| Date Time MST |
Temp °C |
RH % |
DewPt °C |
Wind m/s |
Dir ° |
Gust m/s |
Dir ° |
Press hPa |
Solar W/m^2 |
Prec mm |
|---|---|---|---|---|---|---|---|---|---|---|
| 2026-05-05 22:15 | -0.1 | 98.3 | -0.3 | 4.7 | 359 | 6.4 | 6 | 842.67 | 1.3 | 0.00 |
| 2026-05-05 22:10 | -0.0 | 98.3 | -0.3 | 4.1 | 332 | 5.0 | 341 | 842.56 | 1.3 | 0.00 |
| 2026-05-05 22:05 | -0.0 | 98.3 | -0.3 | 4.1 | 333 | 5.3 | 330 | 842.51 | 1.2 | 0.00 |
| 2026-05-05 22:00 | -0.0 | 98.2 | -0.3 | 3.7 | 331 | 4.7 | 326 | 842.50 | 1.1 | 0.00 |
| 2026-05-05 21:55 | -0.0 | 98.2 | -0.3 | 3.5 | 334 | 4.4 | 338 | 842.46 | 1.1 | 0.00 |
| 2026-05-05 21:50 | -0.0 | 98.3 | -0.3 | 2.2 | 332 | 3.2 | 332 | 842.40 | 1.1 | 0.00 |
| 2026-05-05 21:45 | 0.0 | 98.3 | -0.2 | 1.4 | 1 | 2.0 | 1 | 842.40 | 1.1 | 0.00 |
| 2026-05-05 21:40 | 0.1 | 98.2 | -0.2 | 1.1 | 334 | 1.5 | 334 | 842.36 | 1.1 | 0.00 |
| 2026-05-05 21:35 | 0.1 | 98.2 | -0.2 | 0.8 | 305 | 1.1 | 304 | 842.27 | 1.1 | 0.00 |
| 2026-05-05 21:30 | 0.0 | 98.3 | -0.2 | 0.9 | 305 | 1.0 | 288 | 842.29 | 1.1 | 0.00 |
| 2026-05-05 21:25 | 0.0 | 98.2 | -0.2 | 1.1 | 280 | 1.3 | 279 | 842.28 | 1.1 | 0.00 |
| 2026-05-05 21:20 | 0.0 | 98.3 | -0.2 | 1.2 | 279 | 1.3 | 278 | 842.27 | 1.0 | 0.00 |
| 2026-05-05 21:15 | 0.0 | 98.3 | -0.2 | 1.0 | 266 | 1.2 | 265 | 842.32 | 1.0 | 0.00 |
| 2026-05-05 21:10 | 0.0 | 98.2 | -0.2 | 0.9 | 264 | 1.3 | 263 | 842.29 | 1.1 | 0.00 |
| 2026-05-05 21:05 | 0.0 | 98.2 | -0.2 | 0.5 | 237 | 0.5 | 235 | 842.17 | 1.1 | 0.00 |
| 2026-05-05 21:00 | 0.0 | 98.3 | -0.2 | 0.5 | 235 | 0.6 | 235 | 842.09 | 1.3 | 0.00 |
| 2026-05-05 20:55 | 0.0 | 98.2 | -0.2 | 0.4 | 235 | 0.5 | 235 | 842.02 | 1.3 | 0.00 |
| 2026-05-05 20:50 | -0.0 | 98.3 | -0.2 | 0.2 | 235 | 0.5 | 9 | 841.99 | 1.4 | 0.00 |
| 2026-05-05 20:45 | -0.0 | 98.2 | -0.3 | 0.0 | 9 | 0.0 | 9 | 841.95 | 1.4 | 0.00 |
| 2026-05-05 20:40 | 0.0 | 98.2 | -0.2 | 0.3 | 9 | 0.6 | 272 | 841.90 | 1.4 | 0.00 |
| 2026-05-05 20:35 | 0.1 | 98.2 | -0.1 | 0.0 | 272 | 0.0 | 272 | 841.89 | 1.4 | 0.00 |
| 2026-05-05 20:30 | 0.2 | 98.2 | -0.1 | 0.0 | 272 | 0.0 | 272 | 841.88 | 1.4 | 0.00 |
| 2026-05-05 20:25 | 0.2 | 98.1 | -0.1 | 0.0 | 272 | 0.0 | 272 | 841.79 | 1.4 | 0.00 |
| 2026-05-05 20:20 | 0.1 | 98.2 | -0.1 | 0.0 | 272 | 0.0 | 272 | 841.74 | 1.4 | 0.00 |
| 2026-05-05 20:15 | 0.1 | 98.2 | -0.1 | 0.0 | 272 | 0.0 | 272 | 841.69 | 1.4 | 0.00 |
| 2026-05-05 20:10 | 0.1 | 98.2 | -0.1 | 0.0 | 272 | 0.0 | 272 | 841.60 | 1.4 | 0.00 |
| 2026-05-05 20:05 | 0.1 | 98.2 | -0.1 | 0.0 | 272 | 0.0 | 272 | 841.52 | 1.4 | 0.00 |
| 2026-05-05 20:00 | 0.1 | 98.1 | -0.2 | 0.4 | 272 | 0.6 | 272 | 841.51 | 1.4 | 0.00 |
| 2026-05-05 19:55 | 0.1 | 98.2 | -0.2 | 0.7 | 271 | 1.0 | 271 | 841.47 | 1.4 | 0.00 |
| 2026-05-05 19:50 | 0.0 | 98.2 | -0.2 | 1.2 | 270 | 1.4 | 289 | 841.39 | 1.4 | 0.00 |